Terminal Aerodrome Forecast
Issued by NWS Charleston, WV

Current Version | Previous Version | Text Only | Print | Product List | Glossary Off
Versions: 1 2 3 4 5 6 7 8 9 10 11 12 13 14 15 16 17 18 19 20 21 22 23 24 25 26 27 28 29

000
FTUS41 KRLX 021120
TAFEKN
TAF
KEKN 021120Z 0212/0312 00000KT 6SM BR SCT002 SCT100
     FM021300 00000KT P6SM SCT045
     FM021700 32004KT P6SM VCTS BKN045CB
     FM022200 31004KT P6SM VCTS SCT045CB
     FM022300 VRB03KT P6SM SCT045
     FM030900 00000KT 2SM BR BKN003=

USA.gov is the U.S. government's official web portal to all federal, state and local government web resources and services.